Time;durP1;ratioP1;P1;durP2;ratioP2;P2;SDS_P1;SDS_P2;PMS_P1;PMS_P2;Temp;Humidity;BMP_temperature;BMP_pressure;BME280_temperature;BME280_humidity;BME280_pressure;Samples;Min_cycle;Max_cycle;Signal;HPM_P1;HPM_P2
2022/08/15 00:02:19;;;;;;;18.90;13.00;;;;;;;18.79;89.40;97861.48;109770;1276;1016678;-75
2022/08/15 00:07:58;;;;;;;19.20;13.30;;;;;;;18.71;89.44;97862.21;109826;1276;1016583;-75
2022/08/15 00:13:14;;;;;;;18.50;13.30;;;;;;;18.64;89.65;97863.66;109887;1276;1018940;-75
2022/08/15 00:18:21;;;;;;;19.10;13.40;;;;;;;18.58;89.99;97872.40;109764;1276;1016646;-75
2022/08/15 00:29:55;;;;;;;20.00;13.80;;;;;;;18.48;90.42;97878.67;109749;1274;1016711;-74
2022/08/15 00:41:50;;;;;;;17.50;13.00;;;;;;;18.35;90.80;97872.58;109634;1276;1016189;-74
2022/08/15 00:47:03;;;;;;;18.50;13.10;;;;;;;18.28;90.98;97862.86;109588;1276;1016522;-74
2022/08/15 00:53:14;;;;;;;;;;;;;;;;;;;;;
2022/08/15 00:58:52;;;;;;;17.20;12.70;;;;;;;18.18;91.28;97860.97;109730;1279;1016500;-75
2022/08/15 01:04:16;;;;;;;20.00;13.90;;;;;;;18.15;91.62;97860.07;109745;1276;1016449;-76
2022/08/15 01:09:30;;;;;;;22.70;14.70;;;;;;;18.11;91.63;97860.92;109735;1276;1016489;-75
2022/08/15 01:14:48;;;;;;;;;;;;;;;;;;;;;
2022/08/15 01:20:45;;;;;;;20.60;14.70;;;;;;;18.06;92.01;97857.21;109655;1276;1017167;-75
2022/08/15 01:33:01;;;;;;;21.40;14.90;;;;;;;17.99;92.56;97851.51;109517;1276;1017223;-75
2022/08/15 01:39:22;;;;;;;;;;;;;;;;;;;;;
2022/08/15 01:45:30;;;;;;;18.60;13.60;;;;;;;17.97;92.84;97842.50;107181;1279;5407708;-76
2022/08/15 01:51:17;;;;;;;24.50;16.00;;;;;;;17.92;92.86;97828.41;109693;1277;1018724;-75
2022/08/15 01:56:56;;;;;;;24.90;17.30;;;;;;;17.88;92.82;97822.81;109678;1277;1017546;-75
2022/08/15 02:02:25;;;;;;;27.50;16.70;;;;;;;17.82;92.93;97824.08;109608;1279;1018164;-76
2022/08/15 02:08:07;;;;;;;22.90;15.00;;;;;;;17.74;92.99;97820.86;109532;1279;1016223;-75
2022/08/15 02:14:17;;;;;;;25.60;17.40;;;;;;;17.64;92.96;97824.54;109815;1278;1016436;-75
2022/08/15 02:20:57;;;;;;;23.90;16.10;;;;;;;17.55;93.30;97831.80;109802;1276;1016965;-74
2022/08/15 02:26:19;;;;;;;29.00;16.60;;;;;;;17.48;93.33;97829.11;109753;1277;1016707;-75
2022/08/15 02:31:51;;;;;;;21.20;15.50;;;;;;;17.41;93.49;97828.73;109646;1279;1016100;-75
2022/08/15 02:38:05;;;;;;;;;;;;;;;;;;;;;
2022/08/15 02:43:22;;;;;;;27.00;15.60;;;;;;;17.27;94.03;97833.35;109540;1279;1016697;-75
2022/08/15 02:49:10;;;;;;;22.90;15.70;;;;;;;17.23;94.33;97836.66;109346;1280;1016449;-75
2022/08/15 02:55:09;;;;;;;;;;;;;;;;;;;;;
2022/08/15 03:01:43;;;;;;;24.50;16.70;;;;;;;17.19;95.15;97831.63;109501;1280;1016525;-75
2022/08/15 03:13:26;;;;;;;24.60;15.40;;;;;;;17.24;95.66;97834.52;109214;1281;1016560;-74
2022/08/15 03:20:06;;;;;;;;;;;;;;;;;;;;;
2022/08/15 03:32:24;;;;;;;28.80;17.60;;;;;;;17.16;95.42;97814.45;109615;1279;1016645;-75
2022/08/15 03:38:28;;;;;;;;;;;;;;;;;;;;;
2022/08/15 03:44:16;;;;;;;29.30;18.20;;;;;;;17.09;95.91;97814.34;109070;1284;1016466;-76
2022/08/15 03:49:51;;;;;;;;;;;;;;;;;;;;;
2022/08/15 03:55:30;;;;;;;29.30;18.90;;;;;;;17.06;96.22;97808.00;109300;1282;1018332;-75
2022/08/15 04:01:01;;;;;;;27.80;18.70;;;;;;;17.06;96.32;97806.24;109293;1282;1016545;-76
2022/08/15 04:06:59;;;;;;;33.40;20.20;;;;;;;17.09;96.38;97796.33;109077;1282;1016162;-75
2022/08/15 04:12:48;;;;;;;31.90;19.30;;;;;;;17.16;96.41;97801.71;108798;1288;1016418;-75
2022/08/15 04:18:09;;;;;;;30.30;19.30;;;;;;;17.22;96.50;97801.14;108970;1282;1017955;-76
2022/08/15 04:23:54;;;;;;;;;;;;;;;17.27;96.67;97803.33;109294;1282;1017239;-75
2022/08/15 04:30:23;;;;;;;31.50;18.50;;;;;;;17.34;96.58;97805.16;109320;1282;1016646;-76
2022/08/15 04:35:50;;;;;;;29.50;19.50;;;;;;;17.42;96.57;97804.08;109495;1279;1015959;-76
2022/08/15 04:41:34;;;;;;;;;;;;;;;;;;;;;
2022/08/15 04:47:08;;;;;;;29.30;19.00;;;;;;;17.69;96.70;97808.23;109244;1284;1016616;-74
2022/08/15 04:52:32;;;;;;;28.30;19.00;;;;;;;17.83;96.70;97805.23;109159;1284;1016662;-74
2022/08/15 04:57:59;;;;;;;27.60;19.50;;;;;;;17.97;96.86;97807.98;109027;1285;1017511;-74
2022/08/15 05:03:51;;;;;;;27.90;18.70;;;;;;;18.17;97.00;97808.38;109074;1285;1018526;-74
2022/08/15 05:09:37;;;;;;;29.60;20.10;;;;;;;18.38;97.04;97814.30;109459;1280;1019741;-76
2022/08/15 05:15:47;;;;;;;25.30;16.80;;;;;;;18.56;96.52;97821.77;109036;1282;1016631;-75
2022/08/15 05:21:34;;;;;;;30.40;20.40;;;;;;;18.72;96.07;97822.55;109306;1282;1016675;-75
2022/08/15 05:27:09;;;;;;;22.60;15.30;;;;;;;18.86;96.11;97820.11;109366;1282;1016658;-76
2022/08/15 05:33:05;;;;;;;30.60;20.70;;;;;;;19.02;96.15;97825.08;109317;1282;1018415;-75
2022/08/15 05:38:59;;;;;;;31.40;19.60;;;;;;;19.23;96.25;97822.41;109332;1282;1016581;-75
2022/08/15 05:44:37;;;;;;;30.50;19.10;;;;;;;19.47;96.08;97824.54;109259;1279;1016810;-75
2022/08/15 05:50:28;;;;;;;25.60;17.20;;;;;;;19.65;95.52;97826.14;109560;1279;1018260;-75
2022/08/15 05:56:15;;;;;;;29.00;19.10;;;;;;;19.81;94.87;97830.75;109638;1276;1019294;-75
2022/08/15 06:01:40;;;;;;;25.30;18.10;;;;;;;19.98;94.93;97828.13;109488;1279;1016726;-75
2022/08/15 06:07:18;;;;;;;28.50;17.60;;;;;;;20.15;94.76;97822.84;109680;1276;1016669;-75
2022/08/15 06:13:07;;;;;;;27.30;18.10;;;;;;;20.33;94.61;97820.34;109607;1280;1016233;-75
2022/08/15 06:18:53;;;;;;;24.80;17.00;;;;;;;20.55;93.85;97826.82;109721;1276;1016963;-75
2022/08/15 06:24:19;;;;;;;22.60;16.10;;;;;;;20.70;93.15;97821.11;109638;1276;1017083;-74
2022/08/15 06:30:06;;;;;;;21.50;15.30;;;;;;;20.87;92.79;97825.40;109617;1277;1016525;-75
2022/08/15 06:35:57;;;;;;;22.50;16.00;;;;;;;21.11;92.58;97833.32;109634;1276;1016570;-75
2022/08/15 06:41:42;;;;;;;22.30;17.00;;;;;;;21.35;91.90;97835.45;109778;1276;1016637;-75
2022/08/15 06:47:57;;;;;;;21.30;16.00;;;;;;;21.55;91.32;97834.99;109859;1276;1016302;-75
2022/08/15 06:54:09;;;;;;;21.40;15.40;;;;;;;21.76;90.75;97836.86;109701;1276;1016943;-75
2022/08/15 06:59:54;;;;;;;19.60;15.20;;;;;;;21.89;89.97;97844.83;109692;1276;1018256;-74
2022/08/15 07:05:48;;;;;;;20.30;14.80;;;;;;;22.03;89.65;97854.27;109691;1276;1016094;-75
2022/08/15 07:12:05;;;;;;;21.70;15.00;;;;;;;22.20;88.73;97855.39;109716;1278;1016622;-75
2022/08/15 07:17:55;;;;;;;17.30;12.30;;;;;;;22.33;88.09;97860.17;108874;1288;1016597;-76
2022/08/15 07:23:25;;;;;;;22.70;15.30;;;;;;;22.44;87.19;97866.03;109418;1276;1016672;-76
2022/08/15 07:28:32;;;;;;;18.60;14.20;;;;;;;22.55;87.07;97864.00;109697;1276;1016608;-74
2022/08/15 07:33:57;;;;;;;20.70;15.70;;;;;;;22.63;86.32;97866.02;109673;1278;1018307;-75
2022/08/15 07:39:34;;;;;;;23.30;16.40;;;;;;;22.71;86.06;97864.93;109593;1277;1016658;-75
2022/08/15 07:45:01;;;;;;;25.00;17.50;;;;;;;22.95;86.01;97865.98;109759;1277;1016852;-75
2022/08/15 07:50:15;;;;;;;20.10;15.70;;;;;;;23.02;84.85;97854.65;109556;1277;1018104;-75
2022/08/15 07:56:19;;;;;;;19.40;16.10;;;;;;;23.05;84.66;97855.19;109814;1277;1016342;-75
2022/08/15 08:01:46;;;;;;;20.90;17.00;;;;;;;23.19;84.58;97853.85;109806;1277;1019339;-75
2022/08/15 08:07:19;;;;;;;21.00;17.00;;;;;;;23.36;84.21;97855.75;109746;1277;1017227;-77
2022/08/15 08:13:25;;;;;;;21.30;15.80;;;;;;;23.62;84.05;97849.23;109810;1276;1017397;-75
2022/08/15 08:19:10;;;;;;;17.30;13.90;;;;;;;23.85;83.19;97850.84;109845;1277;1016629;-76
2022/08/15 08:24:44;;;;;;;19.50;15.60;;;;;;;24.07;82.88;97852.05;109836;1277;1016594;-76
2022/08/15 08:30:21;;;;;;;17.10;14.50;;;;;;;24.24;82.38;97857.47;109748;1278;1016566;-74
2022/08/15 08:35:58;;;;;;;20.70;16.10;;;;;;;24.42;81.65;97850.94;109794;1278;1016585;-75
2022/08/15 08:41:42;;;;;;;18.10;15.20;;;;;;;24.60;80.86;97850.32;109652;1278;1016541;-75
2022/08/15 08:47:38;;;;;;;18.40;14.00;;;;;;;24.82;80.44;97849.11;109658;1277;1019199;-75
2022/08/15 08:53:04;;;;;;;12.30;10.70;;;;;;;25.04;79.46;97851.77;109304;1280;1016804;-74
2022/08/15 08:58:18;;;;;;;12.70;11.20;;;;;;;25.23;76.47;97852.67;109695;1277;1016635;-76
2022/08/15 09:04:13;;;;;;;13.20;11.40;;;;;;;25.37;75.78;97850.58;109728;1276;1019138;-76
2022/08/15 09:10:07;;;;;;;15.50;11.90;;;;;;;25.60;75.18;97854.45;109736;1277;1016735;-75
2022/08/15 09:15:24;;;;;;;13.70;12.00;;;;;;;25.82;74.98;97854.55;109705;1277;1018126;-76
2022/08/15 09:20:58;;;;;;;14.00;12.20;;;;;;;26.08;74.59;97850.67;109570;1280;1018394;-75
2022/08/15 09:27:17;;;;;;;12.90;11.30;;;;;;;26.32;73.34;97851.16;109414;1281;1016393;-76
2022/08/15 09:32:43;;;;;;;15.50;12.00;;;;;;;26.29;71.89;97848.38;128641;1281;1016530;-75
2022/08/15 09:38:03;;;;;;;13.70;10.40;;;;;;;26.50;72.09;97849.08;109468;1281;1019096;-75
2022/08/15 09:44:26;;;;;;;11.20;10.00;;;;;;;26.69;70.99;97846.02;109396;1280;1017137;-75
2022/08/15 09:50:02;;;;;;;10.20;9.20;;;;;;;26.87;69.64;97838.73;109422;1277;1016236;-75
2022/08/15 09:55:57;;;;;;;10.90;9.80;;;;;;;26.92;68.36;97831.87;110416;1278;1018744;-75
2022/08/15 10:02:02;;;;;;;10.20;9.20;;;;;;;27.07;67.68;97819.98;109502;1279;1019463;-75
2022/08/15 10:08:09;;;;;;;9.90;8.90;;;;;;;27.27;66.05;97819.27;109530;1280;1018129;-75
2022/08/15 10:13:23;;;;;;;11.50;9.60;;;;;;;27.25;65.44;97819.38;109447;1278;1018532;-75
2022/08/15 10:18:28;;;;;;;10.00;9.00;;;;;;;27.44;66.04;97814.92;109444;1281;1016999;-74
2022/08/15 10:23:37;;;;;;;10.50;9.40;;;;;;;27.65;65.86;97813.14;109553;1281;1016432;-76
2022/08/15 10:29:16;;;;;;;11.50;10.30;;;;;;;27.92;65.33;97811.84;109745;1278;1018826;-76
2022/08/15 10:34:42;;;;;;;10.30;9.20;;;;;;;27.93;62.07;97811.58;109686;1277;1016113;-76
2022/08/15 10:40:08;;;;;;;10.80;9.70;;;;;;;27.73;62.17;97808.32;109822;1277;1016628;-74
2022/08/15 10:45:20;;;;;;;11.00;9.90;;;;;;;27.60;62.86;97806.03;109623;1278;1016913;-75
2022/08/15 10:50:33;;;;;;;10.10;9.00;;;;;;;27.61;62.57;97800.97;109746;1277;1020170;-75
2022/08/15 10:55:40;;;;;;;11.40;10.10;;;;;;;27.87;62.83;97805.83;109910;1277;1016628;-75
2022/08/15 11:01:26;;;;;;;11.30;10.10;;;;;;;28.07;60.92;97803.73;109742;1277;1017135;-75
2022/08/15 11:06:40;;;;;;;10.40;9.20;;;;;;;28.24;61.14;97802.62;109775;1277;1018300;-76
2022/08/15 11:12:10;;;;;;;;;;;;;;;;;;;;;
2022/08/15 11:17:23;;;;;;;9.90;8.70;;;;;;;28.67;60.56;97800.13;109824;1277;1018922;-75
2022/08/15 11:22:58;;;;;;;11.50;8.70;;;;;;;28.90;59.88;97799.67;109587;1278;1016093;-74
2022/08/15 11:28:30;;;;;;;9.70;8.70;;;;;;;29.13;59.33;97800.85;109748;1277;1016766;-74
2022/08/15 11:33:55;;;;;;;7.90;7.10;;;;;;;29.33;57.74;97798.02;109704;1277;1016629;-75
2022/08/15 11:39:13;;;;;;;8.70;7.80;;;;;;;29.46;56.73;97792.76;109687;1276;1016376;-76
2022/08/15 11:44:22;;;;;;;8.20;7.40;;;;;;;29.73;56.90;97795.98;109794;1276;1016535;-76
2022/08/15 11:50:03;;;;;;;11.10;8.50;;;;;;;29.67;56.23;97788.41;109657;1277;1016324;-75
2022/08/15 11:55:44;;;;;;;7.90;7.10;;;;;;;29.79;56.08;97795.23;109878;1277;1016486;-76
2022/08/15 12:00:52;;;;;;;9.40;8.50;;;;;;;30.00;55.72;97792.18;109672;1276;1016982;-74
2022/08/15 12:06:20;;;;;;;9.00;8.20;;;;;;;30.07;55.23;97795.10;109758;1276;1016943;-75
2022/08/15 12:11:54;;;;;;;9.60;8.60;;;;;;;29.87;53.53;97792.95;109718;1277;1016600;-75
2022/08/15 12:17:00;;;;;;;9.70;8.80;;;;;;;29.77;53.82;97783.16;109776;1276;1016553;-75
2022/08/15 12:22:36;;;;;;;8.80;7.90;;;;;;;30.05;54.00;97778.27;109759;1277;1016657;-75
2022/08/15 12:28:02;;;;;;;9.10;8.20;;;;;;;30.42;53.62;97771.22;109807;1277;1016550;-75
2022/08/15 12:33:25;;;;;;;9.30;8.40;;;;;;;30.66;52.28;97777.29;109790;1277;1016765;-75
2022/08/15 12:38:36;;;;;;;8.30;7.50;;;;;;;30.88;51.31;97773.20;109646;1277;1019136;-75
2022/08/15 12:43:40;;;;;;;9.00;7.90;;;;;;;31.09;50.14;97773.95;109745;1277;1016637;-76
2022/08/15 12:48:52;;;;;;;7.80;7.00;;;;;;;31.14;50.18;97762.96;109823;1277;1016591;-75
2022/08/15 12:53:59;;;;;;;8.50;7.70;;;;;;;31.20;48.94;97757.42;109759;1276;1016904;-75
2022/08/15 12:59:05;;;;;;;8.20;7.40;;;;;;;31.30;49.24;97762.98;109802;1276;1016059;-75
2022/08/15 13:04:11;;;;;;;8.20;6.90;;;;;;;31.26;47.81;97759.89;109672;1277;1018843;-74
2022/08/15 13:09:36;;;;;;;7.90;7.20;;;;;;;31.19;48.04;97756.98;109810;1276;1016223;-78
2022/08/15 13:14:39;;;;;;;7.80;7.00;;;;;;;31.23;47.97;97756.68;109743;1277;1018735;-75
2022/08/15 13:25:13;;;;;;;7.10;6.40;;;;;;;31.12;46.80;97750.38;109564;1276;1016624;-76
2022/08/15 13:30:18;;;;;;;7.50;6.80;;;;;;;31.17;46.37;97747.77;109794;1276;1017185;-75
2022/08/15 13:35:21;;;;;;;8.00;7.30;;;;;;;31.40;46.95;97737.88;109615;1276;1016597;-75
2022/08/15 13:40:50;;;;;;;9.90;8.90;;;;;;;31.70;47.57;97726.14;129826;1276;1016751;-76
2022/08/15 13:46:25;;;;;;;8.30;7.50;;;;;;;31.86;46.34;97719.73;109220;1276;1017164;-75
2022/08/15 13:51:41;;;;;;;8.70;6.80;;;;;;;31.94;45.89;97718.91;109636;1278;1018239;-75
2022/08/15 13:57:03;;;;;;;7.80;7.10;;;;;;;31.79;44.87;97716.20;109568;1279;1016959;-76
2022/08/15 14:02:15;;;;;;;7.10;6.40;;;;;;;31.74;45.04;97716.08;109594;1277;1016387;-75
2022/08/15 14:07:56;;;;;;;7.20;6.60;;;;;;;31.52;44.27;97713.31;109596;1277;1016725;-76
2022/08/15 14:13:19;;;;;;;8.30;7.50;;;;;;;31.39;44.41;97708.02;109834;1277;1018349;-75
2022/08/15 14:18:24;;;;;;;8.60;7.80;;;;;;;31.38;44.46;97706.89;109864;1275;1016775;-75
2022/08/15 14:23:49;;;;;;;8.80;7.40;;;;;;;31.41;45.17;97695.91;109938;1276;1017411;-75
2022/08/15 14:28:54;;;;;;;8.10;7.20;;;;;;;31.59;45.45;97697.14;109861;1275;1016550;-75
2022/08/15 14:34:07;;;;;;;8.20;7.40;;;;;;;31.53;44.52;97700.86;109828;1277;1017272;-75
2022/08/15 14:39:46;;;;;;;8.00;7.20;;;;;;;31.19;44.13;97699.61;109786;1277;1016832;-76
2022/08/15 14:44:50;;;;;;;7.70;7.00;;;;;;;31.05;43.29;97695.58;109739;1277;1017640;-75
2022/08/15 14:49:52;;;;;;;7.00;6.40;;;;;;;30.92;44.00;97695.23;109672;1275;1016698;-75
2022/08/15 14:55:17;;;;;;;6.90;6.30;;;;;;;31.00;44.46;97697.41;109885;1277;1019520;-75
2022/08/15 15:00:19;;;;;;;7.30;6.60;;;;;;;31.13;43.91;97705.33;109812;1277;1016458;-76
2022/08/15 15:06:02;;;;;;;7.60;6.90;;;;;;;31.28;43.69;97702.11;109799;1276;1016430;-75
2022/08/15 15:11:26;;;;;;;7.00;6.40;;;;;;;31.23;42.47;97700.40;109770;1276;1016629;-75
2022/08/15 15:16:49;;;;;;;7.70;6.90;;;;;;;31.25;43.42;97699.70;109755;1276;1016484;-75
2022/08/15 15:21:57;;;;;;;7.90;7.10;;;;;;;31.27;43.73;97700.58;109521;1276;1017648;-75
2022/08/15 15:27:00;;;;;;;6.40;5.80;;;;;;;31.28;43.78;97699.60;109766;1276;1016552;-74
2022/08/15 15:32:05;;;;;;;7.40;6.70;;;;;;;31.21;42.74;97702.48;109743;1276;1018438;-75
2022/08/15 15:37:30;;;;;;;7.90;7.10;;;;;;;31.17;43.61;97701.44;109654;1278;1016163;-74
2022/08/15 15:42:32;;;;;;;7.30;6.60;;;;;;;31.22;43.61;97691.42;109677;1276;1018497;-75
2022/08/15 15:47:41;;;;;;;8.00;7.20;;;;;;;31.20;43.67;97696.02;109771;1276;1016326;-75
2022/08/15 15:53:27;;;;;;;8.70;7.80;;;;;;;31.11;43.65;97692.75;109822;1276;1016611;-75
2022/08/15 15:58:29;;;;;;;10.50;9.40;;;;;;;31.02;43.87;97686.35;109846;1276;1016621;-75
2022/08/15 16:03:52;;;;;;;9.80;8.50;;;;;;;30.94;44.12;97684.20;109740;1276;1019018;-75
2022/08/15 16:09:13;;;;;;;9.70;8.70;;;;;;;30.89;44.66;97684.13;109785;1276;1016536;-75
2022/08/15 16:14:27;;;;;;;9.30;8.40;;;;;;;30.86;44.67;97683.20;109849;1276;1018662;-76
2022/08/15 16:19:47;;;;;;;9.10;8.30;;;;;;;30.77;44.83;97690.98;109608;1276;1016399;-75
2022/08/15 16:25:07;;;;;;;9.60;8.60;;;;;;;30.65;45.08;97693.08;109780;1276;1016442;-75
2022/08/15 16:30:17;;;;;;;9.80;7.90;;;;;;;30.53;45.36;97700.08;109702;1276;1016600;-75
2022/08/15 16:36:05;;;;;;;8.90;8.00;;;;;;;30.42;45.70;97701.77;109849;1276;1016620;-75
2022/08/15 16:41:35;;;;;;;9.40;7.80;;;;;;;30.23;45.64;97706.92;109720;1278;1018893;-75
2022/08/15 16:46:58;;;;;;;8.50;7.70;;;;;;;30.09;46.09;97705.39;109713;1276;1016704;-75
2022/08/15 16:52:38;;;;;;;9.00;8.10;;;;;;;29.89;46.26;97706.39;109680;1276;1016522;-75
2022/08/15 16:58:11;;;;;;;10.20;9.20;;;;;;;29.68;46.89;97706.64;109663;1276;1016632;-74
2022/08/15 17:03:57;;;;;;;9.10;8.20;;;;;;;29.42;47.40;97708.09;109560;1278;1016644;-75
2022/08/15 17:09:14;;;;;;;8.50;7.60;;;;;;;29.10;47.87;97708.46;109736;1276;1016575;-74
2022/08/15 17:14:47;;;;;;;9.60;8.60;;;;;;;28.79;48.47;97715.42;109591;1276;1018704;-75
2022/08/15 17:20:03;;;;;;;10.90;8.60;;;;;;;28.48;49.08;97704.67;109738;1277;1016622;-75
2022/08/15 17:25:40;;;;;;;;;;;;;;;28.17;49.45;97704.77;109754;1276;1016975;-74
2022/08/15 17:30:51;;;;;;;9.10;8.10;;;;;;;27.91;50.38;97715.39;109766;1279;1016698;-74
2022/08/15 17:36:00;;;;;;;9.20;8.10;;;;;;;27.65;50.97;97714.59;109780;1276;1016582;-74
2022/08/15 17:41:23;;;;;;;9.20;8.30;;;;;;;27.40;51.43;97718.86;109723;1276;1016627;-75
2022/08/15 17:46:31;;;;;;;8.50;7.70;;;;;;;27.08;51.95;97721.72;109551;1276;1016730;-75
2022/08/15 17:52:07;;;;;;;8.30;7.50;;;;;;;26.80;52.41;97715.95;109757;1276;1016502;-75
2022/08/15 17:57:16;;;;;;;10.20;7.50;;;;;;;26.54;52.92;97709.43;109654;1276;1016304;-76
2022/08/15 18:02:24;;;;;;;9.20;8.00;;;;;;;26.30;53.34;97711.21;109909;1276;1016533;-74
2022/08/15 18:07:46;;;;;;;8.60;7.70;;;;;;;26.11;53.78;97721.33;109876;1276;1016628;-74
2022/08/15 18:13:02;;;;;;;9.90;7.90;;;;;;;25.90;54.38;97729.26;109817;1276;1017328;-74
2022/08/15 18:18:13;;;;;;;8.40;7.60;;;;;;;25.72;54.81;97736.91;109728;1276;1019080;-75
2022/08/15 18:23:34;;;;;;;8.90;7.40;;;;;;;25.50;55.29;97748.59;109747;1276;1016242;-74
2022/08/15 18:29:19;;;;;;;10.80;8.40;;;;;;;25.30;55.92;97757.84;109854;1276;1018365;-75
2022/08/15 18:34:31;;;;;;;10.70;8.90;;;;;;;25.08;56.87;97763.52;109720;1279;1016333;-74
2022/08/15 18:45:30;;;;;;;13.60;9.60;;;;;;;24.55;58.53;97789.89;109815;1276;1016623;-75
2022/08/15 18:50:40;;;;;;;11.10;8.80;;;;;;;24.33;59.11;97803.47;109788;1276;1016649;-74
2022/08/15 18:55:51;;;;;;;10.20;8.40;;;;;;;24.11;59.46;97814.88;109778;1277;1016764;-74
2022/08/15 19:01:00;;;;;;;9.00;7.40;;;;;;;23.91;59.91;97820.50;109784;1277;1016632;-75
2022/08/15 19:06:33;;;;;;;8.10;7.00;;;;;;;23.71;60.21;97832.23;109648;1278;1016524;-74
2022/08/15 19:12:24;;;;;;;7.80;7.00;;;;;;;23.56;60.57;97839.66;109767;1278;1019553;-75
2022/08/15 19:17:38;;;;;;;8.10;7.20;;;;;;;23.45;61.04;97861.34;109659;1277;1017014;-75
2022/08/15 19:22:43;;;;;;;9.60;8.00;;;;;;;23.35;61.11;97870.13;109699;1278;1016673;-75
2022/08/15 19:28:39;;;;;;;9.30;7.80;;;;;;;23.21;61.91;97870.00;109631;1278;1016477;-74
2022/08/15 19:35:08;;;;;;;9.20;8.20;;;;;;;23.07;62.56;97860.80;109559;1277;1016422;-75
2022/08/15 19:40:26;;;;;;;10.10;7.20;;;;;;;22.94;63.13;97872.38;109847;1277;1015848;-75
2022/08/15 19:46:00;;;;;;;12.30;7.70;;;;;;;22.84;63.80;97873.48;109749;1276;1016337;-74
2022/08/15 19:51:22;;;;;;;8.30;7.20;;;;;;;22.73;64.16;97870.30;109770;1277;1016218;-74
2022/08/15 19:56:57;;;;;;;8.50;7.20;;;;;;;22.65;64.45;97862.59;109788;1277;1016455;-73
2022/08/15 20:02:13;;;;;;;11.90;8.40;;;;;;;22.60;64.90;97863.92;109539;1277;1016750;-75
2022/08/15 20:07:35;;;;;;;10.40;7.80;;;;;;;22.58;65.26;97864.08;109747;1276;1017736;-74
2022/08/15 20:14:03;;;;;;;7.70;6.60;;;;;;;22.54;65.46;97864.31;109808;1276;1020742;-76
2022/08/15 20:20:21;;;;;;;9.50;7.90;;;;;;;22.50;65.88;97862.45;109740;1276;1016813;-75
2022/08/15 20:26:08;;;;;;;11.40;8.50;;;;;;;22.45;66.27;97857.06;109545;1278;1018872;-75
2022/08/15 20:31:30;;;;;;;11.50;8.20;;;;;;;22.40;66.49;97853.55;109806;1276;1016523;-74
2022/08/15 20:36:58;;;;;;;10.80;8.90;;;;;;;22.38;66.92;97847.31;109761;1276;1016679;-75
2022/08/15 20:42:06;;;;;;;11.20;8.30;;;;;;;22.34;67.07;97847.95;109743;1276;1018203;-75
2022/08/15 20:47:49;;;;;;;9.70;8.00;;;;;;;22.29;67.41;97849.54;109570;1277;1016380;-75
2022/08/15 20:53:13;;;;;;;10.80;8.50;;;;;;;22.12;67.63;97841.27;109805;1276;1016459;-74
2022/08/15 20:59:07;;;;;;;10.00;8.10;;;;;;;21.96;68.04;97836.34;109697;1277;1016671;-75
2022/08/15 21:04:32;;;;;;;8.80;7.40;;;;;;;21.83;68.40;97848.31;109511;1277;1016761;-75
2022/08/15 21:10:01;;;;;;;11.30;7.70;;;;;;;21.72;68.56;97847.90;109602;1280;1016735;-75
2022/08/15 21:15:08;;;;;;;10.20;7.80;;;;;;;21.59;68.68;97849.81;109724;1279;1016522;-75
2022/08/15 21:20:46;;;;;;;14.10;10.00;;;;;;;21.45;68.91;97849.10;109574;1278;1016723;-75
2022/08/15 21:25:55;;;;;;;9.70;7.20;;;;;;;21.30;69.07;97855.89;109593;1280;1017777;-75
2022/08/15 21:31:45;;;;;;;10.40;7.60;;;;;;;21.19;69.34;97859.49;109639;1276;1016472;-74
2022/08/15 21:36:48;;;;;;;10.00;7.50;;;;;;;21.08;69.78;97866.44;109700;1276;1016757;-73
2022/08/15 21:42:19;;;;;;;13.20;9.50;;;;;;;20.95;70.05;97870.80;109710;1276;1016404;-75
2022/08/15 21:47:45;;;;;;;10.30;8.20;;;;;;;20.82;70.48;97870.40;109357;1281;1016593;-75
2022/08/15 21:53:02;;;;;;;10.50;7.50;;;;;;;20.64;70.78;97870.64;109505;1280;1017601;-75
2022/08/15 21:58:56;;;;;;;10.10;7.90;;;;;;;20.54;71.06;97866.38;109594;1280;1016398;-74
2022/08/15 22:05:09;;;;;;;;;;;;;;;;;;;;;
2022/08/15 22:11:03;;;;;;;10.00;7.50;;;;;;;20.19;71.54;97864.83;109563;1277;1016684;-74
2022/08/15 22:16:56;;;;;;;10.70;7.90;;;;;;;20.01;72.05;97859.38;109723;1276;1016639;-74
2022/08/15 22:22:09;;;;;;;10.00;6.60;;;;;;;19.90;72.48;97854.30;109813;1276;1017213;-73
2022/08/15 22:27:42;;;;;;;9.80;7.30;;;;;;;19.82;72.73;97846.84;109846;1276;1017031;-74
2022/08/15 22:32:48;;;;;;;8.90;6.40;;;;;;;19.76;72.98;97842.02;109752;1276;1018996;-74
2022/08/15 22:38:09;;;;;;;7.70;6.10;;;;;;;19.67;73.13;97838.73;109535;1279;1016433;-75
2022/08/15 22:43:28;;;;;;;8.60;6.00;;;;;;;19.58;73.50;97826.84;109765;1277;1019103;-75
2022/08/15 22:49:16;;;;;;;6.50;5.50;;;;;;;19.50;73.79;97820.31;109825;1276;1016613;-75
2022/08/15 23:00:51;;;;;;;132.80;95.60;;;;;;;19.28;74.31;97821.22;109654;1277;1016752;-75
2022/08/15 23:06:29;;;;;;;12.20;8.20;;;;;;;19.21;74.87;97832.53;109737;1276;1017125;-75
2022/08/15 23:18:25;;;;;;;8.40;6.70;;;;;;;19.07;75.30;97834.20;109537;1277;1017116;-75
2022/08/15 23:24:17;;;;;;;7.10;5.40;;;;;;;19.01;75.69;97830.48;109746;1277;1017833;-74
2022/08/15 23:30:24;;;;;;;8.20;5.60;;;;;;;18.97;76.25;97835.18;109681;1277;1016524;-75
2022/08/15 23:37:03;;;;;;;12.40;6.40;;;;;;;18.95;76.31;97841.35;109691;1277;1018119;-75
2022/08/15 23:43:05;;;;;;;9.30;6.30;;;;;;;18.89;76.37;97837.94;109779;1277;1019313;-75
2022/08/15 23:49:38;;;;;;;8.90;6.10;;;;;;;18.80;76.68;97830.73;109801;1276;1016698;-75
2022/08/15 23:55:44;;;;;;;;;;;;;;;;;;;;;
